LFBO

Toulouse-Blagnac Airport

Toulouse/Blagnac, France
TAF LFBO 171700Z 1718/1824 28008KT 9999 BKN035 TEMPO 1718/1720 4000 -SHRA SCT020TCU BKN025 PROB30 TEMPO 1800/1806 1200 BCFG
Issued Valid From Valid To
Jan-17 @ 17:00 UTC
(7 hours ago)
Jan-17 @ 18:00 UTC
(6 hours ago)
Jan-19 @ 00:00 UTC
(in 24 hours)
Jan-17 @ 18:00 to Jan-19 @ 00:00
TAF LFBO 171700Z 1718/1824 28008KT 9999 BKN035
Wind Visibility Clouds
280° at 8 knots 10,000+ meters
  • Broken at 3,500' AGL
Expired Click to View Jan-17 @ 18:00 to Jan-17 @ 20:00
TEMPO 1718/1720 4000 -SHRA SCT020TCU BKN025
Visibility Clouds Conditions
4,007 meters
  • Scattered at 2,000' AGL
  • Broken at 2,500' AGL
  • Light Rain
Temporary  (Probability 30%) Jan-18 @ 00:00 to Jan-18 @ 06:00
PROB30 TEMPO 1800/1806 1200 BCFG
Visibility Conditions
1,207 meters
  • Patches of
  • Fog
TAF LFBO 171700Z 1718/1824 28008KT 9999 BKN035 TEMPO 1718/1720 4000 -SHRA SCT020TCU BKN025 PROB30 TEMPO 1800/1806 1200 BCFG
Issued Jan-17 @ 17:00 UTC
(7 hours ago)
Valid From Jan-17 @ 18:00 UTC
(6 hours ago)
Valid To Jan-19 @ 00:00 UTC
(in 24 hours)
Jan-17 @ 18:00 - Jan-19 @ 00:00
Wind Visibility
280° at 8 knots 10,000+ meters
Clouds
  • Broken at 3,500' AGL
Jan-17 @ 18:00 - Jan-17 @ 20:00
Clouds
  • Scattered at 2,000' AGL
  • Broken at 2,500' AGL
Conditions
  • Light Rain
Probability 30% Temporary Jan-18 @ 00:00 - Jan-18 @ 06:00
Conditions
  • Patches of
  • Fog